createdAt,value
2018-10-16T00:00:14.383Z,9.90
2018-10-16T00:02:43.786Z,9.40
2018-10-16T00:05:12.444Z,10.27
2018-10-16T00:07:40.975Z,8.77
2018-10-16T00:10:10.307Z,9.50
2018-10-16T00:12:39.258Z,8.67
2018-10-16T00:15:08.644Z,9.37
2018-10-16T00:17:37.398Z,9.70
2018-10-16T00:20:06.527Z,9.43
2018-10-16T00:22:35.361Z,9.67
2018-10-16T00:25:04.120Z,9.37
2018-10-16T00:27:33.011Z,9.50
2018-10-16T00:30:01.886Z,9.93
2018-10-16T00:32:30.592Z,9.60
2018-10-16T00:34:59.070Z,8.63
2018-10-16T00:37:27.605Z,9.37
2018-10-16T00:39:56.131Z,9.83
2018-10-16T00:42:24.946Z,9.60
2018-10-16T00:44:53.787Z,9.43
2018-10-16T00:47:22.446Z,9.23
2018-10-16T00:49:51.200Z,10.10
2018-10-16T00:52:19.870Z,10.80
2018-10-16T00:54:48.446Z,10.53
2018-10-16T00:57:17.250Z,10.60
2018-10-16T00:59:45.998Z,9.80
2018-10-16T01:02:14.660Z,10.40
2018-10-16T01:04:43.418Z,10.70
2018-10-16T01:07:12.330Z,10.10
2018-10-16T01:09:40.994Z,11.20
2018-10-16T01:12:09.758Z,10.57
2018-10-16T01:14:38.656Z,11.07
2018-10-16T01:17:07.314Z,11.43
2018-10-16T01:19:35.878Z,10.90
2018-10-16T01:22:04.726Z,11.17
2018-10-16T01:24:33.615Z,11.20
2018-10-16T01:27:02.297Z,10.70
2018-10-16T01:29:30.814Z,10.80
2018-10-16T01:31:59.378Z,11.30
2018-10-16T01:34:27.918Z,11.23
2018-10-16T01:36:56.451Z,10.83
2018-10-16T01:39:25.223Z,10.57
2018-10-16T01:41:53.878Z,10.93
2018-10-16T01:44:22.674Z,10.50
2018-10-16T01:46:51.598Z,11.37
2018-10-16T01:49:20.476Z,11.10
2018-10-16T01:51:49.219Z,12.03
2018-10-16T01:54:17.921Z,11.87
2018-10-16T01:56:46.678Z,11.20
2018-10-16T01:59:15.561Z,10.73
2018-10-16T02:01:44.284Z,11.23
2018-10-16T02:04:12.970Z,11.57
2018-10-16T02:06:41.529Z,11.43
2018-10-16T02:09:11.662Z,11.53
2018-10-16T02:11:40.626Z,11.47
2018-10-16T02:14:09.471Z,12.20
2018-10-16T02:16:37.994Z,11.90
2018-10-16T02:19:06.750Z,11.53
2018-10-16T02:21:35.451Z,11.20
2018-10-16T02:24:03.986Z,10.97
2018-10-16T02:26:32.815Z,11.93
2018-10-16T02:29:01.756Z,12.00
2018-10-16T02:31:30.640Z,11.87
2018-10-16T02:33:59.294Z,11.70
2018-10-16T02:36:27.842Z,12.23
2018-10-16T02:38:56.602Z,11.20
2018-10-16T02:41:25.515Z,10.77
2018-10-16T02:43:54.406Z,11.20
2018-10-16T02:46:23.069Z,11.47
2018-10-16T02:48:51.826Z,11.20
2018-10-16T02:51:20.469Z,10.53
2018-10-16T02:53:49.267Z,11.10
2018-10-16T02:56:17.897Z,11.90
2018-10-16T02:58:46.447Z,12.20
2018-10-16T03:01:15.233Z,11.80
2018-10-16T03:03:44.093Z,11.40
2018-10-16T03:06:12.988Z,11.43
2018-10-16T03:08:41.927Z,11.57
2018-10-16T03:11:10.854Z,11.57
2018-10-16T03:13:39.694Z,11.27
2018-10-16T03:16:08.366Z,11.67
2018-10-16T03:18:36.895Z,12.07
2018-10-16T03:21:05.474Z,12.07
2018-10-16T03:23:33.973Z,11.87
2018-10-16T03:26:03.094Z,12.10
2018-10-16T03:28:31.955Z,12.00
2018-10-16T03:31:00.850Z,12.23
2018-10-16T03:33:30.167Z,12.60
2018-10-16T03:35:59.943Z,12.80
2018-10-16T03:38:28.859Z,12.87
2018-10-16T03:40:57.751Z,12.80
2018-10-16T03:43:26.406Z,12.43
2018-10-16T03:45:54.954Z,12.70
2018-10-16T03:48:23.724Z,13.03
2018-10-16T03:50:52.718Z,12.10
2018-10-16T03:53:21.366Z,13.27
2018-10-16T03:55:49.907Z,13.10
2018-10-16T03:58:18.434Z,12.30
2018-10-16T04:00:47.728Z,12.17
2018-10-16T04:03:16.611Z,12.00
2018-10-16T04:05:45.261Z,11.60
2018-10-16T04:08:13.786Z,12.57
2018-10-16T04:10:42.563Z,12.13
2018-10-16T04:13:11.838Z,12.60
2018-10-16T04:15:40.604Z,13.20
2018-10-16T04:18:09.522Z,12.77
2018-10-16T04:20:38.146Z,12.70
2018-10-16T04:23:06.896Z,13.03
2018-10-16T04:25:35.599Z,12.37
2018-10-16T04:28:04.418Z,12.97
2018-10-16T04:30:34.886Z,12.47
2018-10-16T04:33:03.546Z,13.10
2018-10-16T04:35:32.074Z,13.03
2018-10-16T04:38:00.866Z,12.87
2018-10-16T04:40:29.578Z,12.20
2018-10-16T04:42:58.086Z,13.37
2018-10-16T04:45:26.895Z,13.23
2018-10-16T04:47:55.782Z,13.17
2018-10-16T04:50:24.694Z,13.70
2018-10-16T04:52:53.390Z,12.47
2018-10-16T04:55:21.918Z,12.60
2018-10-16T04:57:50.501Z,12.80
2018-10-16T05:00:20.170Z,12.07
2018-10-16T05:02:49.070Z,12.67
2018-10-16T05:05:20.588Z,13.03
2018-10-16T05:07:50.050Z,12.80
2018-10-16T05:10:19.231Z,12.73
2018-10-16T05:12:47.878Z,12.10
2018-10-16T05:15:38.849Z,12.37
2018-10-16T05:18:07.497Z,13.17
2018-10-16T05:20:36.279Z,13.00
2018-10-16T05:23:05.311Z,12.77
2018-10-16T05:25:33.955Z,13.60
2018-10-16T05:28:02.521Z,13.23
2018-10-16T05:30:32.081Z,12.57
2018-10-16T05:33:00.982Z,13.07
2018-10-16T05:35:29.638Z,13.40
2018-10-16T05:37:58.178Z,13.33
2018-10-16T05:40:26.992Z,12.97
2018-10-16T05:42:55.891Z,13.17
2018-10-16T05:45:25.623Z,12.67
2018-10-16T05:47:54.278Z,12.87
2018-10-16T05:50:22.806Z,12.73
2018-10-16T05:52:51.595Z,12.63
2018-10-16T05:55:20.256Z,15.40
2018-10-16T05:57:48.902Z,13.53
2018-10-16T06:00:23.071Z,14.00
2018-10-16T06:02:52.314Z,13.87
2018-10-16T06:05:21.209Z,13.73
2018-10-16T06:07:50.098Z,13.10
2018-10-16T06:10:18.979Z,13.37
2018-10-16T06:12:47.639Z,12.47
2018-10-16T06:15:16.170Z,12.27
2018-10-16T06:17:45.020Z,13.43
2018-10-16T06:20:13.671Z,12.50
2018-10-16T06:22:42.834Z,12.33
2018-10-16T06:25:11.457Z,12.50
2018-10-16T06:27:41.709Z,12.03
2018-10-16T06:30:10.748Z,12.57
2018-10-16T06:32:39.887Z,12.60
2018-10-16T06:35:08.873Z,12.70
2018-10-16T06:37:37.435Z,13.07
2018-10-16T06:40:07.101Z,12.40
2018-10-16T06:42:36.334Z,12.80
2018-10-16T06:45:06.829Z,12.80
2018-10-16T06:47:35.617Z,13.37
2018-10-16T06:50:04.662Z,13.00
2018-10-16T06:52:33.229Z,13.20
2018-10-16T06:55:02.683Z,13.20
2018-10-16T06:57:31.527Z,12.47
2018-10-16T07:00:00.208Z,13.13
2018-10-16T07:02:28.770Z,13.87
2018-10-16T07:04:57.587Z,13.50
2018-10-16T07:07:26.318Z,12.87
2018-10-16T07:09:55.071Z,12.63
2018-10-16T07:12:23.792Z,13.43
2018-10-16T07:14:52.355Z,12.50
2018-10-16T07:17:21.703Z,12.90
2018-10-16T07:19:50.380Z,12.53
2018-10-16T07:22:18.934Z,11.97
2018-10-16T07:24:47.493Z,12.20
2018-10-16T07:27:16.034Z,13.77
2018-10-16T07:29:44.604Z,12.43
2018-10-16T07:32:13.364Z,12.20
2018-10-16T07:34:42.258Z,13.10
2018-10-16T07:37:11.170Z,12.60
2018-10-16T07:39:39.857Z,12.20
2018-10-16T07:42:08.385Z,12.57
2018-10-16T07:44:37.203Z,12.23
2018-10-16T07:47:06.357Z,12.40
2018-10-16T07:49:35.315Z,11.73
2018-10-16T07:52:04.130Z,13.27
2018-10-16T07:54:32.677Z,11.23
2018-10-16T07:57:01.545Z,12.47
2018-10-16T07:59:30.128Z,12.43
2018-10-16T08:01:58.663Z,12.03
2018-10-16T08:04:27.204Z,11.70
2018-10-16T08:06:55.967Z,11.80
2018-10-16T08:09:24.636Z,11.43
2018-10-16T08:11:53.254Z,11.07
2018-10-16T08:14:23.247Z,12.27
2018-10-16T08:16:52.172Z,11.60
2018-10-16T08:19:21.079Z,11.17
2018-10-16T08:21:49.750Z,11.13
2018-10-16T08:24:18.301Z,10.57
2018-10-16T08:26:47.464Z,10.97
2018-10-16T08:29:16.166Z,10.73
2018-10-16T08:31:44.682Z,11.40
2018-10-16T08:34:13.303Z,10.17
2018-10-16T08:36:41.799Z,10.83
2018-10-16T08:39:28.929Z,10.70
2018-10-16T08:42:16.997Z,10.57
2018-10-16T08:45:26.010Z,10.67
2018-10-16T08:48:00.310Z,9.90
2018-10-16T08:50:35.725Z,10.30
2018-10-16T08:53:04.294Z,9.60
2018-10-16T08:55:33.407Z,10.73
2018-10-16T08:58:02.947Z,10.53
2018-10-16T09:00:32.094Z,10.53
2018-10-16T09:03:01.078Z,10.03
2018-10-16T09:05:30.179Z,10.40
2018-10-16T09:07:58.703Z,10.13
2018-10-16T09:10:27.739Z,9.47
2018-10-16T09:12:56.261Z,10.53
2018-10-16T09:15:25.245Z,10.00
2018-10-16T09:17:53.886Z,9.30
2018-10-16T09:20:22.638Z,9.47
2018-10-16T09:22:52.541Z,9.83
2018-10-16T09:25:21.416Z,9.60
2018-10-16T09:27:50.299Z,9.27
2018-10-16T09:30:18.969Z,10.33
2018-10-16T09:32:47.724Z,9.10
2018-10-16T09:35:16.656Z,8.67
2018-10-16T09:37:45.564Z,9.53
2018-10-16T09:40:14.177Z,9.33
2018-10-16T09:42:42.966Z,8.87
2018-10-16T09:45:11.890Z,9.10
2018-10-16T09:47:40.755Z,8.53
2018-10-16T09:50:10.234Z,9.30
2018-10-16T09:52:39.138Z,8.73
2018-10-16T09:55:09.058Z,8.87
2018-10-16T09:57:38.042Z,8.33
2018-10-16T10:00:13.859Z,8.37
2018-10-16T10:02:42.757Z,8.33
2018-10-16T10:05:11.643Z,8.33
2018-10-16T10:07:40.521Z,8.03
2018-10-16T10:10:09.751Z,7.80
2018-10-16T10:12:38.891Z,8.17
2018-10-16T10:15:07.803Z,7.83
2018-10-16T10:17:36.966Z,7.83
2018-10-16T10:20:06.483Z,7.63
2018-10-16T10:22:35.416Z,7.93
2018-10-16T10:25:04.473Z,7.67
2018-10-16T10:27:33.318Z,8.00
2018-10-16T10:30:02.634Z,7.77
2018-10-16T10:32:32.011Z,7.70
2018-10-16T10:35:00.896Z,8.40
2018-10-16T10:37:29.562Z,7.97
2018-10-16T10:39:58.330Z,8.17
2018-10-16T10:42:27.345Z,7.50
2018-10-16T10:44:56.224Z,7.80
2018-10-16T10:47:25.119Z,8.03
2018-10-16T10:49:54.085Z,8.27
2018-10-16T10:52:22.949Z,7.80
2018-10-16T10:54:51.851Z,7.93
2018-10-16T10:57:20.779Z,7.43
2018-10-16T10:59:49.664Z,7.97
2018-10-16T11:02:18.650Z,8.20
2018-10-16T11:04:47.539Z,8.07
2018-10-16T11:07:16.569Z,8.07
2018-10-16T11:09:45.322Z,7.87
2018-10-16T11:12:14.229Z,8.33
2018-10-16T11:14:43.115Z,8.13
2018-10-16T11:17:12.006Z,8.53
2018-10-16T11:19:40.890Z,8.40
2018-10-16T11:22:09.790Z,8.10
2018-10-16T11:24:38.682Z,8.30
2018-10-16T11:27:07.668Z,8.10
2018-10-16T11:29:36.548Z,8.57
2018-10-16T11:32:05.443Z,8.33
2018-10-16T11:34:34.359Z,7.93
2018-10-16T11:37:03.309Z,8.37
2018-10-16T11:39:32.122Z,8.40
2018-10-16T11:42:01.561Z,8.30
2018-10-16T11:44:30.482Z,8.30
2018-10-16T11:46:59.347Z,8.80
2018-10-16T11:49:28.227Z,8.57
2018-10-16T11:51:57.145Z,8.50
2018-10-16T11:54:26.627Z,7.77
2018-10-16T11:56:55.542Z,7.93
2018-10-16T11:59:24.491Z,7.73
2018-10-16T12:01:53.401Z,8.43
2018-10-16T12:04:22.289Z,7.80
2018-10-16T12:06:51.238Z,7.80
2018-10-16T12:09:20.111Z,7.67
2018-10-16T12:11:50.875Z,7.77
2018-10-16T12:14:20.147Z,8.13
2018-10-16T12:16:53.339Z,7.50
2018-10-16T12:19:32.439Z,7.90
2018-10-16T12:22:01.572Z,8.33
2018-10-16T12:24:30.459Z,7.70
2018-10-16T12:26:59.443Z,7.87
2018-10-16T12:29:28.286Z,7.57
2018-10-16T12:31:57.167Z,7.97
2018-10-16T12:34:26.114Z,7.53
2018-10-16T12:36:55.033Z,7.90
2018-10-16T12:39:24.014Z,7.37
2018-10-16T12:41:52.895Z,6.83
2018-10-16T12:44:21.804Z,7.50
2018-10-16T12:46:50.699Z,7.10
2018-10-16T12:49:19.583Z,7.00
2018-10-16T12:51:48.478Z,7.63
2018-10-16T12:54:17.390Z,7.20
2018-10-16T12:56:46.515Z,7.40
2018-10-16T12:59:15.622Z,7.13
2018-10-16T13:01:44.445Z,7.60
2018-10-16T13:04:13.350Z,7.20
2018-10-16T13:06:42.471Z,7.43
2018-10-16T13:09:12.266Z,7.00
2018-10-16T13:11:42.014Z,6.93
2018-10-16T13:14:10.990Z,6.80
2018-10-16T13:16:40.115Z,7.60
2018-10-16T13:19:08.999Z,7.23
2018-10-16T13:21:37.887Z,6.70
2018-10-16T13:24:06.840Z,6.40
2018-10-16T13:26:35.691Z,6.73
2018-10-16T13:29:04.837Z,6.47
2018-10-16T13:31:33.662Z,6.97
2018-10-16T13:34:02.589Z,7.47
2018-10-16T13:36:31.445Z,6.20
2018-10-16T13:39:00.322Z,6.30
2018-10-16T13:41:29.207Z,7.30
2018-10-16T13:43:58.142Z,6.67
2018-10-16T13:46:26.978Z,10.13
2018-10-16T13:48:55.854Z,6.73
2018-10-16T13:51:24.739Z,8.30
2018-10-16T13:53:54.166Z,6.67
2018-10-16T13:56:23.083Z,8.20
2018-10-16T13:58:52.094Z,7.30
2018-10-16T14:01:21.051Z,7.27
2018-10-16T14:03:49.917Z,6.70
2018-10-16T14:06:18.955Z,6.80
2018-10-16T14:08:47.830Z,7.07
2018-10-16T14:11:16.731Z,6.90
2018-10-16T14:13:45.815Z,6.33
2018-10-16T14:16:14.510Z,6.40
2018-10-16T14:18:43.227Z,6.17
2018-10-16T14:21:12.161Z,7.20
2018-10-16T14:23:40.998Z,6.53
2018-10-16T14:26:10.015Z,6.90
2018-10-16T14:28:38.797Z,6.87
2018-10-16T14:31:07.688Z,6.90
2018-10-16T14:33:36.650Z,7.00
2018-10-16T14:36:05.569Z,6.83
2018-10-16T14:38:34.779Z,7.40
2018-10-16T14:41:03.687Z,7.00
2018-10-16T14:43:32.570Z,6.67
2018-10-16T14:46:02.127Z,6.50
2018-10-16T14:48:30.978Z,7.23
2018-10-16T14:51:00.575Z,6.27
2018-10-16T14:53:30.454Z,6.73
2018-10-16T14:55:59.455Z,6.80
2018-10-16T14:58:28.299Z,6.73
2018-10-16T15:00:57.182Z,7.00
2018-10-16T15:03:26.098Z,6.40
2018-10-16T15:05:54.950Z,7.63
2018-10-16T15:08:23.833Z,6.80
2018-10-16T15:10:52.710Z,7.00
2018-10-16T15:13:21.596Z,6.50
2018-10-16T15:15:50.536Z,6.90
2018-10-16T15:18:19.355Z,6.80
2018-10-16T15:20:48.237Z,8.33
2018-10-16T15:23:17.131Z,7.23
2018-10-16T15:25:46.014Z,7.50
2018-10-16T15:28:14.917Z,8.43
2018-10-16T15:30:44.347Z,10.13
2018-10-16T15:33:13.241Z,7.30
2018-10-16T15:35:42.185Z,7.43
2018-10-16T15:38:11.099Z,7.90
2018-10-16T15:40:39.943Z,7.73
2018-10-16T15:43:08.830Z,7.50
2018-10-16T15:45:37.711Z,8.10
2018-10-16T15:48:06.632Z,7.20
2018-10-16T15:50:35.489Z,7.63
2018-10-16T15:53:04.375Z,7.40
2018-10-16T15:55:33.243Z,7.87
2018-10-16T15:58:02.183Z,8.00
2018-10-16T16:00:31.096Z,9.10
2018-10-16T16:02:59.978Z,8.03
2018-10-16T16:05:28.615Z,8.93
2018-10-16T16:07:57.437Z,9.13
2018-10-16T16:10:26.259Z,9.03
2018-10-16T16:12:55.155Z,9.90
2018-10-16T16:15:24.043Z,10.27
2018-10-16T16:17:52.938Z,8.73
2018-10-16T16:20:21.812Z,8.73
2018-10-16T16:22:50.463Z,9.27
2018-10-16T16:25:19.219Z,9.90
2018-10-16T16:27:48.094Z,9.70
2018-10-16T16:30:16.975Z,9.23
2018-10-16T16:32:45.853Z,9.87
2018-10-16T16:35:14.807Z,9.83
2018-10-16T16:37:43.672Z,9.70
2018-10-16T16:40:13.759Z,9.03
2018-10-16T16:42:42.754Z,8.90
2018-10-16T16:45:12.194Z,10.70
2018-10-16T16:47:41.067Z,9.50
2018-10-16T16:50:10.622Z,9.50
2018-10-16T16:52:39.582Z,9.27
2018-10-16T16:55:09.652Z,10.27
2018-10-16T16:57:38.307Z,10.60
2018-10-16T17:00:09.390Z,10.40
2018-10-16T17:02:38.837Z,11.43
2018-10-16T17:05:08.003Z,12.77
2018-10-16T17:07:37.087Z,11.23
2018-10-16T17:10:06.605Z,10.63
2018-10-16T17:12:35.523Z,11.03
2018-10-16T17:15:04.706Z,12.37
2018-10-16T17:17:33.602Z,13.20
2018-10-16T17:20:02.675Z,11.90
2018-10-16T17:22:31.540Z,11.43
2018-10-16T17:25:00.401Z,10.90
2018-10-16T17:27:28.928Z,11.10
2018-10-16T17:29:57.819Z,9.80
2018-10-16T17:32:26.461Z,10.73
2018-10-16T17:34:55.239Z,10.73
2018-10-16T17:37:24.186Z,10.37
2018-10-16T17:39:53.068Z,9.93
2018-10-16T17:42:22.087Z,9.70
2018-10-16T17:44:50.739Z,9.50
2018-10-16T17:47:19.514Z,10.27
2018-10-16T17:49:48.400Z,10.03
2018-10-16T17:52:17.402Z,9.70
2018-10-16T17:54:46.294Z,10.57
2018-10-16T17:57:14.970Z,10.00
2018-10-16T17:59:43.726Z,9.60
2018-10-16T18:02:12.624Z,10.37
2018-10-16T18:04:41.314Z,9.77
2018-10-16T18:07:10.062Z,8.90
2018-10-16T18:09:38.765Z,9.40
2018-10-16T18:12:07.600Z,9.60
2018-10-16T18:14:36.466Z,9.53
2018-10-16T18:17:05.367Z,9.80
2018-10-16T18:19:35.254Z,10.40
2018-10-16T18:22:04.194Z,9.70
2018-10-16T18:24:32.850Z,10.07
2018-10-16T18:27:01.636Z,10.53
2018-10-16T18:29:30.291Z,11.40
2018-10-16T18:31:58.825Z,10.90
2018-10-16T18:34:27.361Z,10.87
2018-10-16T18:36:56.126Z,11.83
2018-10-16T18:39:25.019Z,11.53
2018-10-16T18:41:53.882Z,11.47
2018-10-16T18:44:22.807Z,11.73
2018-10-16T18:46:51.671Z,12.03
2018-10-16T18:49:20.563Z,10.87
2018-10-16T18:51:49.230Z,12.40
2018-10-16T18:54:17.833Z,12.90
2018-10-16T18:56:46.552Z,11.07
2018-10-16T18:59:15.439Z,11.53
2018-10-16T19:01:44.105Z,11.23
2018-10-16T19:04:12.872Z,11.80
2018-10-16T19:06:42.337Z,11.37
2018-10-16T19:09:12.462Z,11.07
2018-10-16T19:11:41.954Z,12.30
2018-10-16T19:14:10.611Z,12.23
2018-10-16T19:16:39.562Z,11.20
2018-10-16T19:19:08.332Z,11.57
2018-10-16T19:21:37.214Z,12.47
2018-10-16T19:24:06.170Z,12.07
2018-10-16T19:26:34.702Z,11.20
2018-10-16T19:29:03.255Z,12.17
2018-10-16T19:31:32.015Z,12.30
2018-10-16T19:34:00.658Z,11.37
2018-10-16T19:36:29.301Z,11.37
2018-10-16T19:38:58.058Z,11.93
2018-10-16T19:41:26.899Z,11.50
2018-10-16T19:43:55.567Z,11.77
2018-10-16T19:46:24.132Z,11.93
2018-10-16T19:48:52.902Z,11.67
2018-10-16T19:51:21.562Z,11.67
2018-10-16T19:53:50.358Z,11.90
2018-10-16T19:56:19.238Z,12.83
2018-10-16T19:58:47.951Z,12.63
2018-10-16T20:01:16.676Z,11.77
2018-10-16T20:03:45.334Z,12.67
2018-10-16T20:06:14.604Z,12.03
2018-10-16T20:08:43.586Z,13.03
2018-10-16T20:11:12.145Z,13.10
2018-10-16T20:13:40.677Z,13.20
2018-10-16T20:16:09.249Z,13.63
2018-10-16T20:18:37.799Z,14.10
2018-10-16T20:21:06.425Z,14.33
2018-10-16T20:23:35.195Z,13.23
2018-10-16T20:26:03.849Z,13.83
2018-10-16T20:28:32.390Z,12.57
2018-10-16T20:31:00.971Z,14.00
2018-10-16T20:33:29.482Z,12.60
2018-10-16T20:35:58.015Z,13.53
2018-10-16T20:38:26.794Z,12.50
2018-10-16T20:40:56.308Z,12.03
2018-10-16T20:43:25.094Z,12.83
2018-10-16T20:45:53.978Z,11.80
2018-10-16T20:48:22.879Z,10.87
2018-10-16T20:50:51.764Z,10.83
2018-10-16T20:53:20.446Z,10.67
2018-10-16T20:55:49.219Z,9.97
2018-10-16T20:58:17.887Z,10.67
2018-10-16T21:00:46.650Z,10.67
2018-10-16T21:03:15.356Z,10.30
2018-10-16T21:05:44.168Z,9.80
2018-10-16T21:08:12.745Z,10.03
2018-10-16T21:10:41.511Z,10.17
2018-10-16T21:13:10.449Z,10.23
2018-10-16T21:15:39.133Z,9.50
2018-10-16T21:18:07.681Z,10.37
2018-10-16T21:20:36.213Z,10.67
2018-10-16T21:23:04.831Z,10.83
2018-10-16T21:25:33.378Z,10.13
2018-10-16T21:28:01.869Z,10.83
2018-10-16T21:30:30.402Z,11.33
2018-10-16T21:32:59.970Z,11.33
2018-10-16T21:35:28.717Z,10.73
2018-10-16T21:37:57.650Z,9.83
2018-10-16T21:40:26.309Z,11.00
2018-10-16T21:42:55.128Z,11.20
2018-10-16T21:45:24.066Z,11.23
2018-10-16T21:47:52.665Z,10.90
2018-10-16T21:50:21.249Z,10.50
2018-10-16T21:52:49.742Z,10.40
2018-10-16T21:55:18.341Z,10.47
2018-10-16T21:57:46.829Z,10.70
2018-10-16T22:00:20.778Z,10.73
2018-10-16T22:02:50.380Z,10.40
2018-10-16T22:05:22.514Z,10.07
2018-10-16T22:07:52.816Z,10.50
2018-10-16T22:10:21.960Z,9.87
2018-10-16T22:12:50.994Z,9.90
2018-10-16T22:15:20.341Z,9.93
2018-10-16T22:17:49.193Z,9.90
2018-10-16T22:20:17.981Z,9.47
2018-10-16T22:22:47.215Z,9.27
2018-10-16T22:25:15.994Z,9.60
2018-10-16T22:27:44.434Z,9.67
2018-10-16T22:30:13.198Z,9.30
2018-10-16T22:32:41.857Z,9.50
2018-10-16T22:35:11.495Z,9.60
2018-10-16T22:37:40.374Z,9.43
2018-10-16T22:40:09.789Z,9.77
2018-10-16T22:42:38.403Z,9.87
2018-10-16T22:45:07.774Z,9.97
2018-10-16T22:47:36.531Z,9.13
2018-10-16T22:50:09.034Z,9.47
2018-10-16T22:52:37.698Z,9.77
2018-10-16T22:55:06.648Z,10.23
2018-10-16T22:57:35.118Z,9.67
2018-10-16T23:00:04.401Z,10.33
2018-10-16T23:02:33.066Z,10.40
2018-10-16T23:05:01.905Z,10.27
2018-10-16T23:07:30.494Z,10.20
2018-10-16T23:09:59.269Z,10.33
2018-10-16T23:12:28.166Z,10.47
2018-10-16T23:14:57.074Z,10.23
2018-10-16T23:17:25.966Z,9.90
2018-10-16T23:19:54.854Z,9.97
2018-10-16T23:22:23.555Z,10.30
2018-10-16T23:24:52.398Z,10.77
2018-10-16T23:27:21.025Z,10.17
2018-10-16T23:29:49.791Z,10.80
2018-10-16T23:32:18.484Z,10.63
2018-10-16T23:34:47.049Z,10.67
2018-10-16T23:37:15.876Z,10.60
2018-10-16T23:39:44.690Z,10.23
2018-10-16T23:42:13.567Z,10.37
2018-10-16T23:44:42.221Z,10.20
2018-10-16T23:47:10.815Z,11.07
2018-10-16T23:49:39.296Z,11.03
2018-10-16T23:52:08.052Z,10.63
2018-10-16T23:54:36.714Z,9.87
2018-10-16T23:57:05.285Z,10.20
2018-10-16T23:59:33.825Z,10.03
